sensor_id;sensor_type;location;lat;lon;timestamp;pressure;altitude;pressure_sealevel;temperature;humidity
72961;BME280;61141;46.204;19.774;2023-08-21T00:02:25;100755.22;;;23.45;88.11
72961;BME280;61141;46.204;19.774;2023-08-21T00:05:30;100758.22;;;23.37;89.22
72961;BME280;61141;46.204;19.774;2023-08-21T00:08:33;100752.94;;;23.27;90.20
72961;BME280;61141;46.204;19.774;2023-08-21T00:11:36;100755.03;;;23.23;90.36
72961;BME280;61141;46.204;19.774;2023-08-21T00:14:39;100746.41;;;23.17;90.95
72961;BME280;61141;46.204;19.774;2023-08-21T00:17:42;100753.38;;;23.13;91.21
72961;BME280;61141;46.204;19.774;2023-08-21T00:20:44;100757.84;;;23.10;91.56
72961;BME280;61141;46.204;19.774;2023-08-21T00:23:47;100765.75;;;23.12;91.40
72961;BME280;61141;46.204;19.774;2023-08-21T00:26:50;100763.31;;;23.14;91.55
72961;BME280;61141;46.204;19.774;2023-08-21T00:29:53;100757.97;;;23.19;90.89
72961;BME280;61141;46.204;19.774;2023-08-21T00:32:56;100758.25;;;23.09;91.24
72961;BME280;61141;46.204;19.774;2023-08-21T00:35:59;100758.94;;;23.00;91.90
72961;BME280;61141;46.204;19.774;2023-08-21T00:39:02;100763.06;;;22.96;93.17
72961;BME280;61141;46.204;19.774;2023-08-21T00:42:05;100758.47;;;23.02;92.17
72961;BME280;61141;46.204;19.774;2023-08-21T00:45:09;100757.91;;;22.94;93.00
72961;BME280;61141;46.204;19.774;2023-08-21T00:48:14;100747.72;;;22.88;92.94
72961;BME280;61141;46.204;19.774;2023-08-21T00:51:17;100761.84;;;22.97;92.68
72961;BME280;61141;46.204;19.774;2023-08-21T00:54:20;100759.37;;;22.99;92.97
72961;BME280;61141;46.204;19.774;2023-08-21T00:57:23;100755.91;;;22.95;93.07
72961;BME280;61141;46.204;19.774;2023-08-21T01:00:27;100757.47;;;22.96;93.05
72961;BME280;61141;46.204;19.774;2023-08-21T01:03:30;100754.44;;;22.90;93.46
72961;BME280;61141;46.204;19.774;2023-08-21T01:06:33;100748.84;;;22.90;93.43
72961;BME280;61141;46.204;19.774;2023-08-21T01:10:01;100751.53;;;22.94;93.51
72961;BME280;61141;46.204;19.774;2023-08-21T01:13:34;100739.66;;;22.77;94.22
72961;BME280;61141;46.204;19.774;2023-08-21T01:16:43;100745.47;;;22.83;94.45
72961;BME280;61141;46.204;19.774;2023-08-21T01:19:48;100734.38;;;22.66;94.61
72961;BME280;61141;46.204;19.774;2023-08-21T01:22:52;100758.50;;;22.73;94.46
72961;BME280;61141;46.204;19.774;2023-08-21T01:25:57;100751.28;;;22.75;94.67
72961;BME280;61141;46.204;19.774;2023-08-21T01:28:59;100755.37;;;22.71;94.99
72961;BME280;61141;46.204;19.774;2023-08-21T01:32:24;100751.78;;;22.70;95.41
72961;BME280;61141;46.204;19.774;2023-08-21T01:35:29;100748.41;;;22.63;95.87
72961;BME280;61141;46.204;19.774;2023-08-21T01:38:33;100754.72;;;22.67;95.30
72961;BME280;61141;46.204;19.774;2023-08-21T01:41:36;100750.84;;;22.61;95.83
72961;BME280;61141;46.204;19.774;2023-08-21T01:44:39;100745.03;;;22.55;96.22
72961;BME280;61141;46.204;19.774;2023-08-21T01:47:41;100740.91;;;22.60;96.00
72961;BME280;61141;46.204;19.774;2023-08-21T01:50:45;100752.53;;;22.58;96.03
72961;BME280;61141;46.204;19.774;2023-08-21T01:53:47;100743.53;;;22.51;96.75
72961;BME280;61141;46.204;19.774;2023-08-21T01:56:50;100748.87;;;22.45;97.20
72961;BME280;61141;46.204;19.774;2023-08-21T01:59:53;100746.53;;;22.44;97.22
72961;BME280;61141;46.204;19.774;2023-08-21T02:02:56;100740.25;;;22.40;97.42
72961;BME280;61141;46.204;19.774;2023-08-21T02:05:59;100757.00;;;22.40;97.58
72961;BME280;61141;46.204;19.774;2023-08-21T02:09:02;100741.91;;;22.37;97.60
72961;BME280;61141;46.204;19.774;2023-08-21T02:12:05;100751.63;;;22.33;97.92
72961;BME280;61141;46.204;19.774;2023-08-21T02:15:08;100751.63;;;22.33;98.21
72961;BME280;61141;46.204;19.774;2023-08-21T02:18:12;100752.94;;;22.28;98.31
72961;BME280;61141;46.204;19.774;2023-08-21T02:21:15;100760.28;;;22.22;98.67
72961;BME280;61141;46.204;19.774;2023-08-21T02:24:18;100751.31;;;22.14;98.39
72961;BME280;61141;46.204;19.774;2023-08-21T02:27:21;100767.34;;;22.10;99.20
72961;BME280;61141;46.204;19.774;2023-08-21T02:30:24;100763.09;;;22.06;99.50
72961;BME280;61141;46.204;19.774;2023-08-21T02:33:31;100758.91;;;21.98;100.00
72961;BME280;61141;46.204;19.774;2023-08-21T02:36:34;100747.12;;;21.90;99.94
72961;BME280;61141;46.204;19.774;2023-08-21T02:39:37;100766.59;;;21.94;100.00
72961;BME280;61141;46.204;19.774;2023-08-21T02:42:40;100751.41;;;21.79;100.00
72961;BME280;61141;46.204;19.774;2023-08-21T02:45:43;100756.88;;;21.82;100.00
72961;BME280;61141;46.204;19.774;2023-08-21T02:48:46;100761.25;;;21.83;100.00
72961;BME280;61141;46.204;19.774;2023-08-21T02:51:49;100767.16;;;21.85;100.00
72961;BME280;61141;46.204;19.774;2023-08-21T02:54:52;100767.44;;;21.91;100.00
72961;BME280;61141;46.204;19.774;2023-08-21T02:57:54;100763.97;;;21.87;100.00
72961;BME280;61141;46.204;19.774;2023-08-21T03:00:57;100764.66;;;21.91;100.00
72961;BME280;61141;46.204;19.774;2023-08-21T03:04:00;100759.66;;;21.82;100.00
72961;BME280;61141;46.204;19.774;2023-08-21T03:07:03;100764.91;;;21.80;100.00
72961;BME280;61141;46.204;19.774;2023-08-21T03:10:07;100760.25;;;21.74;100.00
72961;BME280;61141;46.204;19.774;2023-08-21T03:13:10;100739.00;;;21.63;100.00
72961;BME280;61141;46.204;19.774;2023-08-21T03:16:13;100768.28;;;21.72;100.00
72961;BME280;61141;46.204;19.774;2023-08-21T03:19:16;100770.53;;;21.60;100.00
72961;BME280;61141;46.204;19.774;2023-08-21T03:22:18;100771.50;;;21.54;100.00
72961;BME280;61141;46.204;19.774;2023-08-21T03:25:21;100768.28;;;21.55;100.00
72961;BME280;61141;46.204;19.774;2023-08-21T03:28:25;100768.34;;;21.52;100.00
72961;BME280;61141;46.204;19.774;2023-08-21T03:31:29;100775.50;;;21.53;100.00
72961;BME280;61141;46.204;19.774;2023-08-21T03:34:32;100772.28;;;21.54;100.00
72961;BME280;61141;46.204;19.774;2023-08-21T03:37:35;100765.47;;;21.39;100.00
72961;BME280;61141;46.204;19.774;2023-08-21T03:40:39;100774.78;;;21.49;100.00
72961;BME280;61141;46.204;19.774;2023-08-21T03:43:42;100776.28;;;21.37;100.00
72961;BME280;61141;46.204;19.774;2023-08-21T03:46:45;100780.19;;;21.40;100.00
72961;BME280;61141;46.204;19.774;2023-08-21T03:49:49;100790.50;;;21.43;100.00
72961;BME280;61141;46.204;19.774;2023-08-21T03:52:52;100782.53;;;21.41;100.00
72961;BME280;61141;46.204;19.774;2023-08-21T03:55:54;100785.84;;;21.36;100.00
72961;BME280;61141;46.204;19.774;2023-08-21T03:58:57;100795.09;;;21.49;100.00
72961;BME280;61141;46.204;19.774;2023-08-21T04:02:00;100796.34;;;21.48;100.00
72961;BME280;61141;46.204;19.774;2023-08-21T04:05:04;100787.72;;;21.59;100.00
72961;BME280;61141;46.204;19.774;2023-08-21T04:08:07;100790.84;;;21.61;100.00
72961;BME280;61141;46.204;19.774;2023-08-21T04:11:10;100789.53;;;21.65;100.00
72961;BME280;61141;46.204;19.774;2023-08-21T04:14:13;100797.75;;;21.73;100.00
72961;BME280;61141;46.204;19.774;2023-08-21T04:17:21;100795.12;;;21.65;100.00
72961;BME280;61141;46.204;19.774;2023-08-21T04:20:24;100793.47;;;21.68;100.00
72961;BME280;61141;46.204;19.774;2023-08-21T04:23:27;100802.47;;;21.76;100.00
72961;BME280;61141;46.204;19.774;2023-08-21T04:26:29;100801.09;;;21.84;100.00
72961;BME280;61141;46.204;19.774;2023-08-21T04:29:35;100809.75;;;21.89;100.00
72961;BME280;61141;46.204;19.774;2023-08-21T04:32:38;100816.13;;;21.90;100.00
72961;BME280;61141;46.204;19.774;2023-08-21T04:35:42;100800.72;;;21.82;100.00
72961;BME280;61141;46.204;19.774;2023-08-21T04:38:45;100812.28;;;22.00;100.00
72961;BME280;61141;46.204;19.774;2023-08-21T04:41:48;100812.09;;;22.07;100.00
72961;BME280;61141;46.204;19.774;2023-08-21T04:44:52;100808.41;;;22.26;100.00
72961;BME280;61141;46.204;19.774;2023-08-21T04:47:55;100807.72;;;22.38;100.00
72961;BME280;61141;46.204;19.774;2023-08-21T04:51:00;100815.38;;;22.50;100.00
72961;BME280;61141;46.204;19.774;2023-08-21T04:54:03;100811.00;;;22.49;100.00
72961;BME280;61141;46.204;19.774;2023-08-21T04:57:06;100811.72;;;22.53;100.00
72961;BME280;61141;46.204;19.774;2023-08-21T05:00:09;100811.00;;;22.65;99.18
72961;BME280;61141;46.204;19.774;2023-08-21T05:03:12;100821.47;;;22.77;98.55
72961;BME280;61141;46.204;19.774;2023-08-21T05:06:17;100827.53;;;22.89;98.06
72961;BME280;61141;46.204;19.774;2023-08-21T05:09:20;100829.69;;;22.97;97.49
72961;BME280;61141;46.204;19.774;2023-08-21T05:12:23;100829.63;;;23.13;97.17
72961;BME280;61141;46.204;19.774;2023-08-21T05:15:28;100828.28;;;23.18;97.37
72961;BME280;61141;46.204;19.774;2023-08-21T05:18:31;100837.47;;;23.31;96.02
72961;BME280;61141;46.204;19.774;2023-08-21T05:21:33;100830.28;;;23.46;95.22
72961;BME280;61141;46.204;19.774;2023-08-21T05:24:37;100834.31;;;23.58;93.66
72961;BME280;61141;46.204;19.774;2023-08-21T05:27:40;100821.34;;;23.64;93.26
72961;BME280;61141;46.204;19.774;2023-08-21T05:30:46;100832.75;;;23.82;93.03
72961;BME280;61141;46.204;19.774;2023-08-21T05:33:49;100833.31;;;23.89;92.63
72961;BME280;61141;46.204;19.774;2023-08-21T05:36:52;100835.00;;;24.00;92.33
72961;BME280;61141;46.204;19.774;2023-08-21T05:39:57;100834.75;;;24.07;91.47
72961;BME280;61141;46.204;19.774;2023-08-21T05:43:00;100842.62;;;24.24;91.21
72961;BME280;61141;46.204;19.774;2023-08-21T05:46:05;100834.72;;;24.44;90.46
72961;BME280;61141;46.204;19.774;2023-08-21T05:49:09;100825.03;;;24.58;89.45
72961;BME280;61141;46.204;19.774;2023-08-21T05:52:11;100819.31;;;24.62;88.35
72961;BME280;61141;46.204;19.774;2023-08-21T05:55:15;100826.22;;;24.82;87.34
72961;BME280;61141;46.204;19.774;2023-08-21T05:58:18;100819.56;;;24.89;86.28
72961;BME280;61141;46.204;19.774;2023-08-21T06:01:21;100831.56;;;25.11;85.52
72961;BME280;61141;46.204;19.774;2023-08-21T06:04:24;100833.37;;;25.27;83.93
72961;BME280;61141;46.204;19.774;2023-08-21T06:07:28;100830.37;;;25.43;83.84
72961;BME280;61141;46.204;19.774;2023-08-21T06:10:31;100832.19;;;25.58;83.57
72961;BME280;61141;46.204;19.774;2023-08-21T06:13:34;100813.75;;;25.57;83.51
72961;BME280;61141;46.204;19.774;2023-08-21T06:16:37;100835.59;;;25.93;81.54
72961;BME280;61141;46.204;19.774;2023-08-21T06:19:40;100833.78;;;26.08;80.65
72961;BME280;61141;46.204;19.774;2023-08-21T06:22:43;100833.06;;;26.17;78.61
72961;BME280;61141;46.204;19.774;2023-08-21T06:25:49;100835.41;;;26.27;78.78
72961;BME280;61141;46.204;19.774;2023-08-21T06:28:53;100838.41;;;26.42;78.31
72961;BME280;61141;46.204;19.774;2023-08-21T06:31:56;100836.72;;;26.54;77.37
72961;BME280;61141;46.204;19.774;2023-08-21T06:34:59;100836.41;;;26.70;76.41
72961;BME280;61141;46.204;19.774;2023-08-21T06:38:02;100842.38;;;26.81;76.06
72961;BME280;61141;46.204;19.774;2023-08-21T06:41:06;100843.28;;;26.96;76.03
72961;BME280;61141;46.204;19.774;2023-08-21T06:44:14;100843.28;;;27.05;75.23
72961;BME280;61141;46.204;19.774;2023-08-21T06:47:17;100840.00;;;27.07;75.07
72961;BME280;61141;46.204;19.774;2023-08-21T06:50:19;100846.56;;;27.22;74.83
72961;BME280;61141;46.204;19.774;2023-08-21T06:53:22;100850.47;;;27.24;73.90
72961;BME280;61141;46.204;19.774;2023-08-21T06:56:25;100846.56;;;27.31;72.86
72961;BME280;61141;46.204;19.774;2023-08-21T06:59:28;100841.25;;;27.42;73.04
72961;BME280;61141;46.204;19.774;2023-08-21T07:02:31;100846.38;;;27.53;71.51
72961;BME280;61141;46.204;19.774;2023-08-21T07:05:34;100849.47;;;27.64;71.90
72961;BME280;61141;46.204;19.774;2023-08-21T07:08:36;100847.06;;;27.71;71.54
72961;BME280;61141;46.204;19.774;2023-08-21T07:11:40;100838.91;;;27.82;71.39
72961;BME280;61141;46.204;19.774;2023-08-21T07:14:43;100851.22;;;27.94;71.05
72961;BME280;61141;46.204;19.774;2023-08-21T07:17:46;100841.78;;;28.06;69.69
72961;BME280;61141;46.204;19.774;2023-08-21T07:20:52;100856.72;;;28.21;68.83
72961;BME280;61141;46.204;19.774;2023-08-21T07:23:55;100855.00;;;28.24;68.86
72961;BME280;61141;46.204;19.774;2023-08-21T07:26:57;100854.03;;;28.27;69.26
72961;BME280;61141;46.204;19.774;2023-08-21T07:30:00;100857.16;;;28.29;68.65
72961;BME280;61141;46.204;19.774;2023-08-21T07:33:03;100863.44;;;28.47;67.08
72961;BME280;61141;46.204;19.774;2023-08-21T07:36:06;100858.91;;;28.50;66.70
72961;BME280;61141;46.204;19.774;2023-08-21T07:39:09;100857.56;;;28.60;65.84
72961;BME280;61141;46.204;19.774;2023-08-21T07:42:12;100855.47;;;28.70;66.49
72961;BME280;61141;46.204;19.774;2023-08-21T07:45:15;100859.12;;;28.85;66.21
72961;BME280;61141;46.204;19.774;2023-08-21T07:48:18;100851.84;;;28.93;65.10
72961;BME280;61141;46.204;19.774;2023-08-21T07:51:21;100860.03;;;28.91;64.11
72961;BME280;61141;46.204;19.774;2023-08-21T07:54:24;100849.53;;;29.06;63.94
72961;BME280;61141;46.204;19.774;2023-08-21T07:57:27;100846.72;;;29.06;62.72
72961;BME280;61141;46.204;19.774;2023-08-21T08:00:30;100847.41;;;29.16;63.44
72961;BME280;61141;46.204;19.774;2023-08-21T08:03:33;100845.22;;;29.34;62.45
72961;BME280;61141;46.204;19.774;2023-08-21T08:06:36;100847.94;;;29.43;60.62
72961;BME280;61141;46.204;19.774;2023-08-21T08:09:40;100850.09;;;29.48;61.59
72961;BME280;61141;46.204;19.774;2023-08-21T08:12:44;100845.00;;;29.52;60.64
72961;BME280;61141;46.204;19.774;2023-08-21T08:15:47;100841.00;;;29.74;61.32
72961;BME280;61141;46.204;19.774;2023-08-21T08:18:51;100839.16;;;29.85;60.65
72961;BME280;61141;46.204;19.774;2023-08-21T08:21:54;100837.41;;;29.88;60.04
72961;BME280;61141;46.204;19.774;2023-08-21T08:24:57;100841.06;;;29.94;59.16
72961;BME280;61141;46.204;19.774;2023-08-21T08:28:00;100845.47;;;29.95;58.12
72961;BME280;61141;46.204;19.774;2023-08-21T08:31:04;100790.25;;;29.64;57.37
72961;BME280;61141;46.204;19.774;2023-08-21T08:34:07;100846.28;;;30.15;56.53
72961;BME280;61141;46.204;19.774;2023-08-21T08:37:10;100811.38;;;30.18;56.30
72961;BME280;61141;46.204;19.774;2023-08-21T08:40:13;100814.84;;;30.28;55.30
72961;BME280;61141;46.204;19.774;2023-08-21T08:43:17;100841.31;;;30.65;55.30
72961;BME280;61141;46.204;19.774;2023-08-21T08:46:20;100846.41;;;30.81;54.30
72961;BME280;61141;46.204;19.774;2023-08-21T08:49:23;100848.09;;;30.73;53.41
72961;BME280;61141;46.204;19.774;2023-08-21T08:52:27;100851.22;;;30.96;52.96
72961;BME280;61141;46.204;19.774;2023-08-21T08:55:31;100840.34;;;31.14;52.97
72961;BME280;61141;46.204;19.774;2023-08-21T08:58:34;100839.22;;;31.32;51.38
72961;BME280;61141;46.204;19.774;2023-08-21T09:01:37;100844.56;;;31.50;50.43
72961;BME280;61141;46.204;19.774;2023-08-21T09:04:40;100839.44;;;31.54;49.39
72961;BME280;61141;46.204;19.774;2023-08-21T09:07:43;100839.00;;;31.61;50.08
72961;BME280;61141;46.204;19.774;2023-08-21T09:10:46;100837.91;;;31.53;48.82
72961;BME280;61141;46.204;19.774;2023-08-21T09:13:53;100832.03;;;31.62;48.29
72961;BME280;61141;46.204;19.774;2023-08-21T09:17:00;100834.41;;;31.69;48.63
72961;BME280;61141;46.204;19.774;2023-08-21T09:20:07;100834.81;;;31.88;48.81
72961;BME280;61141;46.204;19.774;2023-08-21T09:23:15;100829.13;;;31.88;48.18
72961;BME280;61141;46.204;19.774;2023-08-21T09:26:20;100832.22;;;31.90;47.93
72961;BME280;61141;46.204;19.774;2023-08-21T09:29:23;100828.75;;;32.01;47.78
72961;BME280;61141;46.204;19.774;2023-08-21T09:32:26;100828.34;;;31.87;48.06
72961;BME280;61141;46.204;19.774;2023-08-21T09:35:32;100831.78;;;31.34;48.14
72961;BME280;61141;46.204;19.774;2023-08-21T09:38:35;100833.47;;;31.78;47.37
72961;BME280;61141;46.204;19.774;2023-08-21T09:41:38;100840.63;;;32.05;45.23
72961;BME280;61141;46.204;19.774;2023-08-21T09:44:41;100831.31;;;32.04;46.23
72961;BME280;61141;46.204;19.774;2023-08-21T09:47:46;100824.66;;;32.07;46.18
72961;BME280;61141;46.204;19.774;2023-08-21T09:50:50;100822.12;;;32.20;46.25
72961;BME280;61141;46.204;19.774;2023-08-21T09:53:53;100818.19;;;32.07;46.53
72961;BME280;61141;46.204;19.774;2023-08-21T09:57:01;100815.56;;;32.45;45.79
72961;BME280;61141;46.204;19.774;2023-08-21T10:00:05;100807.44;;;32.75;44.57
72961;BME280;61141;46.204;19.774;2023-08-21T10:03:19;100808.91;;;32.54;45.76
72961;BME280;61141;46.204;19.774;2023-08-21T10:06:23;100797.75;;;32.39;46.23
72961;BME280;61141;46.204;19.774;2023-08-21T10:09:27;100804.06;;;32.66;44.38
72961;BME280;61141;46.204;19.774;2023-08-21T10:12:31;100790.97;;;33.01;43.75
72961;BME280;61141;46.204;19.774;2023-08-21T10:15:36;100804.91;;;32.94;43.07
72961;BME280;61141;46.204;19.774;2023-08-21T10:18:44;100801.88;;;33.08;43.60
72961;BME280;61141;46.204;19.774;2023-08-21T10:21:48;100793.88;;;33.40;42.55
72961;BME280;61141;46.204;19.774;2023-08-21T10:24:59;100795.16;;;33.73;42.06
72961;BME280;61141;46.204;19.774;2023-08-21T10:28:02;100791.81;;;33.41;41.45
72961;BME280;61141;46.204;19.774;2023-08-21T10:34:33;100790.78;;;33.49;42.11
72961;BME280;61141;46.204;19.774;2023-08-21T10:38:08;100774.75;;;33.52;43.04
72961;BME280;61141;46.204;19.774;2023-08-21T10:41:11;100783.78;;;33.78;41.73
72961;BME280;61141;46.204;19.774;2023-08-21T10:44:14;100780.19;;;33.72;41.89
72961;BME280;61141;46.204;19.774;2023-08-21T10:47:22;100785.34;;;33.29;42.61
72961;BME280;61141;46.204;19.774;2023-08-21T10:50:28;100784.56;;;33.29;42.78
72961;BME280;61141;46.204;19.774;2023-08-21T10:53:31;100786.13;;;33.19;42.73
72961;BME280;61141;46.204;19.774;2023-08-21T10:56:34;100782.25;;;33.38;42.26
72961;BME280;61141;46.204;19.774;2023-08-21T10:59:37;100775.53;;;33.69;42.56
72961;BME280;61141;46.204;19.774;2023-08-21T11:02:42;100772.16;;;33.76;42.51
72961;BME280;61141;46.204;19.774;2023-08-21T11:05:44;100759.53;;;33.66;41.51
72961;BME280;61141;46.204;19.774;2023-08-21T11:08:47;100768.50;;;33.87;41.81
72961;BME280;61141;46.204;19.774;2023-08-21T11:11:50;100762.34;;;33.77;41.78
72961;BME280;61141;46.204;19.774;2023-08-21T11:14:53;100757.72;;;33.57;41.81
72961;BME280;61141;46.204;19.774;2023-08-21T11:17:58;100761.31;;;33.80;41.48
72961;BME280;61141;46.204;19.774;2023-08-21T11:21:09;100765.19;;;33.77;41.05
72961;BME280;61141;46.204;19.774;2023-08-21T11:24:12;100757.59;;;34.13;40.22
72961;BME280;61141;46.204;19.774;2023-08-21T11:27:18;100749.91;;;33.86;40.70
72961;BME280;61141;46.204;19.774;2023-08-21T11:30:23;100758.38;;;34.19;38.89
72961;BME280;61141;46.204;19.774;2023-08-21T11:33:27;100750.59;;;34.14;39.64
72961;BME280;61141;46.204;19.774;2023-08-21T11:36:30;100737.28;;;33.48;40.97
72961;BME280;61141;46.204;19.774;2023-08-21T11:39:47;100739.88;;;33.29;41.15
72961;BME280;61141;46.204;19.774;2023-08-21T11:42:51;100737.78;;;33.74;40.68
72961;BME280;61141;46.204;19.774;2023-08-21T11:45:55;100727.97;;;33.69;40.41
72961;BME280;61141;46.204;19.774;2023-08-21T11:49:00;100747.84;;;33.75;40.92
72961;BME280;61141;46.204;19.774;2023-08-21T11:52:05;100735.22;;;33.04;42.45
72961;BME280;61141;46.204;19.774;2023-08-21T11:55:09;100738.75;;;32.60;42.83
72961;BME280;61141;46.204;19.774;2023-08-21T11:58:17;100744.75;;;32.84;41.92
72961;BME280;61141;46.204;19.774;2023-08-21T12:01:21;100738.31;;;33.61;40.98
72961;BME280;61141;46.204;19.774;2023-08-21T12:04:25;100735.91;;;33.99;40.00
72961;BME280;61141;46.204;19.774;2023-08-21T12:07:29;100720.62;;;34.02;39.63
72961;BME280;61141;46.204;19.774;2023-08-21T12:10:32;100725.94;;;34.33;39.29
72961;BME280;61141;46.204;19.774;2023-08-21T12:13:34;100718.28;;;34.63;38.67
72961;BME280;61141;46.204;19.774;2023-08-21T12:16:38;100715.13;;;34.72;38.73
72961;BME280;61141;46.204;19.774;2023-08-21T12:19:40;100718.81;;;34.10;39.92
72961;BME280;61141;46.204;19.774;2023-08-21T12:22:44;100726.72;;;33.32;41.18
72961;BME280;61141;46.204;19.774;2023-08-21T12:25:47;100716.34;;;33.62;40.59
72961;BME280;61141;46.204;19.774;2023-08-21T12:28:50;100716.59;;;33.64;40.22
72961;BME280;61141;46.204;19.774;2023-08-21T12:31:53;100713.69;;;33.92;39.72
72961;BME280;61141;46.204;19.774;2023-08-21T12:34:56;100710.44;;;34.29;39.52
72961;BME280;61141;46.204;19.774;2023-08-21T12:37:58;100697.28;;;34.25;39.35
72961;BME280;61141;46.204;19.774;2023-08-21T12:41:08;100687.59;;;34.45;39.16
72961;BME280;61141;46.204;19.774;2023-08-21T12:44:10;100692.38;;;34.26;38.11
72961;BME280;61141;46.204;19.774;2023-08-21T12:47:13;100706.09;;;34.16;39.33
72961;BME280;61141;46.204;19.774;2023-08-21T12:50:16;100694.50;;;34.09;38.40
72961;BME280;61141;46.204;19.774;2023-08-21T12:53:19;100702.66;;;34.35;37.81
72961;BME280;61141;46.204;19.774;2023-08-21T12:56:22;100697.31;;;34.20;37.85
72961;BME280;61141;46.204;19.774;2023-08-21T12:59:25;100693.75;;;33.97;38.42
72961;BME280;61141;46.204;19.774;2023-08-21T13:02:28;100701.94;;;33.21;38.76
72961;BME280;61141;46.204;19.774;2023-08-21T13:05:31;100696.47;;;33.51;38.73
72961;BME280;61141;46.204;19.774;2023-08-21T13:08:33;100666.19;;;33.70;37.31
72961;BME280;61141;46.204;19.774;2023-08-21T13:11:36;100677.97;;;34.07;36.96
72961;BME280;61141;46.204;19.774;2023-08-21T13:14:39;100679.84;;;34.46;36.45
72961;BME280;61141;46.204;19.774;2023-08-21T13:17:44;100676.53;;;34.31;37.06
72961;BME280;61141;46.204;19.774;2023-08-21T13:20:46;100683.97;;;34.45;37.33
72961;BME280;61141;46.204;19.774;2023-08-21T13:23:49;100671.56;;;34.83;36.44
72961;BME280;61141;46.204;19.774;2023-08-21T13:26:52;100669.28;;;34.76;36.25
72961;BME280;61141;46.204;19.774;2023-08-21T13:29:55;100663.94;;;34.20;36.32
72961;BME280;61141;46.204;19.774;2023-08-21T13:32:58;100652.69;;;33.87;36.63
72961;BME280;61141;46.204;19.774;2023-08-21T13:36:01;100664.19;;;33.43;36.98
72961;BME280;61141;46.204;19.774;2023-08-21T13:39:04;100661.72;;;33.97;37.15
72961;BME280;61141;46.204;19.774;2023-08-21T13:42:08;100669.94;;;34.58;35.53
72961;BME280;61141;46.204;19.774;2023-08-21T13:45:12;100632.59;;;34.67;35.08
72961;BME280;61141;46.204;19.774;2023-08-21T13:48:16;100653.84;;;34.66;35.17
72961;BME280;61141;46.204;19.774;2023-08-21T13:51:18;100652.66;;;33.98;34.65
72961;BME280;61141;46.204;19.774;2023-08-21T13:54:24;100646.84;;;33.68;35.94
72961;BME280;61141;46.204;19.774;2023-08-21T13:57:26;100653.38;;;34.15;35.37
72961;BME280;61141;46.204;19.774;2023-08-21T14:00:29;100654.59;;;34.25;34.75
72961;BME280;61141;46.204;19.774;2023-08-21T14:03:32;100635.53;;;34.50;34.59
72961;BME280;61141;46.204;19.774;2023-08-21T14:06:35;100649.97;;;34.63;34.34
72961;BME280;61141;46.204;19.774;2023-08-21T14:09:38;100641.63;;;34.71;33.47
72961;BME280;61141;46.204;19.774;2023-08-21T14:12:41;100633.19;;;34.60;34.32
72961;BME280;61141;46.204;19.774;2023-08-21T14:15:44;100648.16;;;34.66;33.82
72961;BME280;61141;46.204;19.774;2023-08-21T14:18:47;100629.78;;;34.61;34.51
72961;BME280;61141;46.204;19.774;2023-08-21T14:21:50;100635.28;;;34.54;34.62
72961;BME280;61141;46.204;19.774;2023-08-21T14:24:53;100629.47;;;34.70;34.18
72961;BME280;61141;46.204;19.774;2023-08-21T14:27:56;100626.44;;;34.93;33.91
72961;BME280;61141;46.204;19.774;2023-08-21T14:30:58;100622.66;;;34.79;34.34
72961;BME280;61141;46.204;19.774;2023-08-21T14:34:02;100619.22;;;34.86;33.58
72961;BME280;61141;46.204;19.774;2023-08-21T14:37:05;100625.56;;;34.73;33.64
72961;BME280;61141;46.204;19.774;2023-08-21T14:40:08;100623.69;;;34.46;34.25
72961;BME280;61141;46.204;19.774;2023-08-21T14:43:12;100614.03;;;34.90;34.17
72961;BME280;61141;46.204;19.774;2023-08-21T14:46:15;100613.19;;;34.95;35.09
72961;BME280;61141;46.204;19.774;2023-08-21T14:49:32;100617.81;;;34.74;34.25
72961;BME280;61141;46.204;19.774;2023-08-21T14:52:35;100628.47;;;34.27;33.98
72961;BME280;61141;46.204;19.774;2023-08-21T14:55:38;100622.34;;;34.88;33.61
72961;BME280;61141;46.204;19.774;2023-08-21T14:58:41;100604.56;;;34.76;33.73
72961;BME280;61141;46.204;19.774;2023-08-21T15:01:46;100614.41;;;34.40;34.46
72961;BME280;61141;46.204;19.774;2023-08-21T15:04:49;100621.22;;;34.67;34.75
72961;BME280;61141;46.204;19.774;2023-08-21T15:07:51;100613.78;;;34.58;34.63
72961;BME280;61141;46.204;19.774;2023-08-21T15:10:56;100616.47;;;34.75;34.40
72961;BME280;61141;46.204;19.774;2023-08-21T15:14:01;100611.22;;;34.55;34.83
72961;BME280;61141;46.204;19.774;2023-08-21T15:17:05;100610.06;;;34.34;35.50
72961;BME280;61141;46.204;19.774;2023-08-21T15:20:20;100605.34;;;34.42;35.63
72961;BME280;61141;46.204;19.774;2023-08-21T15:23:23;100599.47;;;34.29;35.82
72961;BME280;61141;46.204;19.774;2023-08-21T15:26:26;100591.06;;;34.12;35.68
72961;BME280;61141;46.204;19.774;2023-08-21T15:29:29;100595.50;;;34.07;36.06
72961;BME280;61141;46.204;19.774;2023-08-21T15:32:33;100606.06;;;34.07;36.39
72961;BME280;61141;46.204;19.774;2023-08-21T15:35:36;100617.44;;;34.12;36.07
72961;BME280;61141;46.204;19.774;2023-08-21T15:38:38;100601.97;;;34.02;35.45
72961;BME280;61141;46.204;19.774;2023-08-21T15:41:41;100612.72;;;34.20;35.57
72961;BME280;61141;46.204;19.774;2023-08-21T15:44:44;100596.06;;;33.89;36.35
72961;BME280;61141;46.204;19.774;2023-08-21T15:47:47;100616.97;;;33.97;36.63
72961;BME280;61141;46.204;19.774;2023-08-21T15:50:53;100595.75;;;34.09;36.40